sensor_id;sensor_type;location;lat;lon;timestamp;P1;durP1;ratioP1;P2;durP2;ratioP2
56670;SDS011;42545;50.054;8.306;2023-04-24T00:01:11;0.82;;;0.70;;
56670;SDS011;42545;50.054;8.306;2023-04-24T00:03:39;1.27;;;0.75;;
56670;SDS011;42545;50.054;8.306;2023-04-24T00:06:06;0.98;;;0.77;;
56670;SDS011;42545;50.054;8.306;2023-04-24T00:08:33;0.73;;;0.60;;
56670;SDS011;42545;50.054;8.306;2023-04-24T00:11:00;0.60;;;0.60;;
56670;SDS011;42545;50.054;8.306;2023-04-24T00:13:28;1.10;;;1.00;;
56670;SDS011;42545;50.054;8.306;2023-04-24T00:15:54;0.80;;;0.80;;
56670;SDS011;42545;50.054;8.306;2023-04-24T00:18:21;0.60;;;0.55;;
56670;SDS011;42545;50.054;8.306;2023-04-24T00:20:49;0.60;;;0.60;;
56670;SDS011;42545;50.054;8.306;2023-04-24T00:23:16;1.15;;;0.85;;
56670;SDS011;42545;50.054;8.306;2023-04-24T00:25:42;2.17;;;1.00;;
56670;SDS011;42545;50.054;8.306;2023-04-24T00:28:09;0.70;;;0.70;;
56670;SDS011;42545;50.054;8.306;2023-04-24T00:30:36;1.08;;;0.80;;
56670;SDS011;42545;50.054;8.306;2023-04-24T00:33:02;1.38;;;0.77;;
56670;SDS011;42545;50.054;8.306;2023-04-24T00:35:29;0.80;;;0.75;;
56670;SDS011;42545;50.054;8.306;2023-04-24T00:37:57;1.80;;;0.90;;
56670;SDS011;42545;50.054;8.306;2023-04-24T00:40:23;0.93;;;0.77;;
56670;SDS011;42545;50.054;8.306;2023-04-24T00:42:50;0.63;;;0.52;;
56670;SDS011;42545;50.054;8.306;2023-04-24T00:45:16;1.60;;;1.00;;
56670;SDS011;42545;50.054;8.306;2023-04-24T00:47:43;0.73;;;0.70;;
56670;SDS011;42545;50.054;8.306;2023-04-24T00:50:11;1.30;;;0.80;;
56670;SDS011;42545;50.054;8.306;2023-04-24T00:52:38;1.67;;;0.93;;
56670;SDS011;42545;50.054;8.306;2023-04-24T00:55:07;0.90;;;0.80;;
56670;SDS011;42545;50.054;8.306;2023-04-24T00:57:34;0.60;;;0.60;;
56670;SDS011;42545;50.054;8.306;2023-04-24T01:00:01;0.45;;;0.45;;
56670;SDS011;42545;50.054;8.306;2023-04-24T01:02:37;0.95;;;0.70;;
56670;SDS011;42545;50.054;8.306;2023-04-24T01:05:05;0.57;;;0.50;;
56670;SDS011;42545;50.054;8.306;2023-04-24T01:07:32;0.57;;;0.57;;
56670;SDS011;42545;50.054;8.306;2023-04-24T01:10:00;1.05;;;0.60;;
56670;SDS011;42545;50.054;8.306;2023-04-24T01:12:29;0.50;;;0.50;;
56670;SDS011;42545;50.054;8.306;2023-04-24T01:14:55;0.60;;;0.60;;
56670;SDS011;42545;50.054;8.306;2023-04-24T01:17:23;0.70;;;0.70;;
56670;SDS011;42545;50.054;8.306;2023-04-24T01:19:49;1.42;;;0.70;;
56670;SDS011;42545;50.054;8.306;2023-04-24T01:22:20;0.75;;;0.57;;
56670;SDS011;42545;50.054;8.306;2023-04-24T01:24:46;0.70;;;0.60;;
56670;SDS011;42545;50.054;8.306;2023-04-24T01:27:13;0.50;;;0.50;;
56670;SDS011;42545;50.054;8.306;2023-04-24T01:29:40;1.25;;;0.70;;
56670;SDS011;42545;50.054;8.306;2023-04-24T01:32:07;1.40;;;0.80;;
56670;SDS011;42545;50.054;8.306;2023-04-24T01:34:34;0.77;;;0.60;;
56670;SDS011;42545;50.054;8.306;2023-04-24T01:37:01;1.15;;;0.95;;
56670;SDS011;42545;50.054;8.306;2023-04-24T01:39:29;1.88;;;0.88;;
56670;SDS011;42545;50.054;8.306;2023-04-24T01:41:56;1.77;;;1.08;;
56670;SDS011;42545;50.054;8.306;2023-04-24T01:44:22;2.22;;;0.98;;
56670;SDS011;42545;50.054;8.306;2023-04-24T01:46:51;1.65;;;0.95;;
56670;SDS011;42545;50.054;8.306;2023-04-24T01:49:19;1.67;;;0.95;;
56670;SDS011;42545;50.054;8.306;2023-04-24T01:51:48;1.88;;;1.00;;
56670;SDS011;42545;50.054;8.306;2023-04-24T01:54:14;3.58;;;0.80;;
56670;SDS011;42545;50.054;8.306;2023-04-24T01:56:43;1.85;;;0.80;;
56670;SDS011;42545;50.054;8.306;2023-04-24T01:59:10;1.77;;;0.77;;
56670;SDS011;42545;50.054;8.306;2023-04-24T02:01:38;1.25;;;0.98;;
56670;SDS011;42545;50.054;8.306;2023-04-24T02:04:05;1.67;;;1.10;;
56670;SDS011;42545;50.054;8.306;2023-04-24T02:06:33;2.38;;;1.00;;
56670;SDS011;42545;50.054;8.306;2023-04-24T02:09:00;1.58;;;0.90;;
56670;SDS011;42545;50.054;8.306;2023-04-24T02:11:27;1.25;;;0.90;;
56670;SDS011;42545;50.054;8.306;2023-04-24T02:13:56;0.75;;;0.68;;
56670;SDS011;42545;50.054;8.306;2023-04-24T02:16:22;1.27;;;0.70;;
56670;SDS011;42545;50.054;8.306;2023-04-24T02:18:49;1.50;;;1.00;;
56670;SDS011;42545;50.054;8.306;2023-04-24T02:21:16;1.38;;;0.93;;
56670;SDS011;42545;50.054;8.306;2023-04-24T02:23:42;0.80;;;0.70;;
56670;SDS011;42545;50.054;8.306;2023-04-24T02:26:09;1.00;;;0.88;;
56670;SDS011;42545;50.054;8.306;2023-04-24T02:28:36;1.05;;;0.90;;
56670;SDS011;42545;50.054;8.306;2023-04-24T02:31:05;0.75;;;0.65;;
56670;SDS011;42545;50.054;8.306;2023-04-24T02:33:31;1.00;;;0.80;;
56670;SDS011;42545;50.054;8.306;2023-04-24T02:35:58;1.00;;;0.90;;
56670;SDS011;42545;50.054;8.306;2023-04-24T02:38:25;0.88;;;0.80;;
56670;SDS011;42545;50.054;8.306;2023-04-24T02:40:51;0.90;;;0.90;;
56670;SDS011;42545;50.054;8.306;2023-04-24T02:43:18;1.10;;;0.80;;
56670;SDS011;42545;50.054;8.306;2023-04-24T02:45:45;1.13;;;0.80;;
56670;SDS011;42545;50.054;8.306;2023-04-24T02:48:13;0.70;;;0.70;;
56670;SDS011;42545;50.054;8.306;2023-04-24T02:50:39;1.40;;;1.00;;
56670;SDS011;42545;50.054;8.306;2023-04-24T02:53:06;0.75;;;0.70;;
56670;SDS011;42545;50.054;8.306;2023-04-24T02:55:33;0.98;;;0.80;;
56670;SDS011;42545;50.054;8.306;2023-04-24T02:57:59;0.68;;;0.68;;
56670;SDS011;42545;50.054;8.306;2023-04-24T03:00:26;0.73;;;0.73;;
56670;SDS011;42545;50.054;8.306;2023-04-24T03:02:53;0.50;;;0.50;;
56670;SDS011;42545;50.054;8.306;2023-04-24T03:05:21;0.88;;;0.60;;
56670;SDS011;42545;50.054;8.306;2023-04-24T03:07:48;1.15;;;0.60;;
56670;SDS011;42545;50.054;8.306;2023-04-24T03:10:14;1.52;;;0.80;;
56670;SDS011;42545;50.054;8.306;2023-04-24T03:12:41;0.50;;;0.50;;
56670;SDS011;42545;50.054;8.306;2023-04-24T03:15:08;0.73;;;0.73;;
56670;SDS011;42545;50.054;8.306;2023-04-24T03:17:35;1.13;;;0.90;;
56670;SDS011;42545;50.054;8.306;2023-04-24T03:20:02;1.45;;;1.00;;
56670;SDS011;42545;50.054;8.306;2023-04-24T03:22:31;1.27;;;1.17;;
56670;SDS011;42545;50.054;8.306;2023-04-24T03:24:59;1.00;;;0.80;;
56670;SDS011;42545;50.054;8.306;2023-04-24T03:27:25;0.80;;;0.80;;
56670;SDS011;42545;50.054;8.306;2023-04-24T03:29:52;0.90;;;0.90;;
56670;SDS011;42545;50.054;8.306;2023-04-24T03:32:20;1.00;;;0.82;;
56670;SDS011;42545;50.054;8.306;2023-04-24T03:34:47;2.20;;;1.25;;
56670;SDS011;42545;50.054;8.306;2023-04-24T03:37:14;0.93;;;0.93;;
56670;SDS011;42545;50.054;8.306;2023-04-24T03:39:42;1.58;;;1.30;;
56670;SDS011;42545;50.054;8.306;2023-04-24T03:42:09;1.30;;;1.20;;
56670;SDS011;42545;50.054;8.306;2023-04-24T03:44:36;1.70;;;1.35;;
56670;SDS011;42545;50.054;8.306;2023-04-24T03:47:03;2.45;;;1.50;;
56670;SDS011;42545;50.054;8.306;2023-04-24T03:49:29;1.98;;;1.20;;
56670;SDS011;42545;50.054;8.306;2023-04-24T03:51:56;1.42;;;1.00;;
56670;SDS011;42545;50.054;8.306;2023-04-24T03:54:23;2.65;;;1.38;;
56670;SDS011;42545;50.054;8.306;2023-04-24T03:56:51;2.00;;;1.45;;
56670;SDS011;42545;50.054;8.306;2023-04-24T03:59:18;1.83;;;1.33;;
56670;SDS011;42545;50.054;8.306;2023-04-24T04:01:44;3.35;;;1.40;;
56670;SDS011;42545;50.054;8.306;2023-04-24T04:04:11;1.58;;;1.30;;
56670;SDS011;42545;50.054;8.306;2023-04-24T04:06:37;1.15;;;1.05;;
56670;SDS011;42545;50.054;8.306;2023-04-24T04:09:04;3.28;;;1.50;;
56670;SDS011;42545;50.054;8.306;2023-04-24T04:11:32;2.17;;;1.30;;
56670;SDS011;42545;50.054;8.306;2023-04-24T04:14:00;1.85;;;1.15;;
56670;SDS011;42545;50.054;8.306;2023-04-24T04:16:27;2.90;;;1.40;;
56670;SDS011;42545;50.054;8.306;2023-04-24T04:18:54;2.13;;;1.30;;
56670;SDS011;42545;50.054;8.306;2023-04-24T04:21:21;2.72;;;1.48;;
56670;SDS011;42545;50.054;8.306;2023-04-24T04:23:48;2.45;;;1.40;;
56670;SDS011;42545;50.054;8.306;2023-04-24T04:26:15;1.92;;;1.50;;
56670;SDS011;42545;50.054;8.306;2023-04-24T04:28:44;4.70;;;2.05;;
56670;SDS011;42545;50.054;8.306;2023-04-24T04:31:14;3.28;;;1.70;;
56670;SDS011;42545;50.054;8.306;2023-04-24T04:33:40;2.05;;;1.58;;
56670;SDS011;42545;50.054;8.306;2023-04-24T04:36:07;3.63;;;1.98;;
56670;SDS011;42545;50.054;8.306;2023-04-24T04:38:34;4.63;;;1.98;;
56670;SDS011;42545;50.054;8.306;2023-04-24T04:41:02;2.13;;;1.60;;
56670;SDS011;42545;50.054;8.306;2023-04-24T04:43:29;6.28;;;2.25;;
56670;SDS011;42545;50.054;8.306;2023-04-24T04:45:56;3.20;;;2.08;;
56670;SDS011;42545;50.054;8.306;2023-04-24T04:48:27;1.98;;;1.50;;
56670;SDS011;42545;50.054;8.306;2023-04-24T04:50:53;2.05;;;1.67;;
56670;SDS011;42545;50.054;8.306;2023-04-24T04:53:20;3.88;;;1.77;;
56670;SDS011;42545;50.054;8.306;2023-04-24T04:55:46;2.03;;;1.27;;
56670;SDS011;42545;50.054;8.306;2023-04-24T04:58:13;3.50;;;1.73;;
56670;SDS011;42545;50.054;8.306;2023-04-24T05:00:40;2.72;;;1.98;;
56670;SDS011;42545;50.054;8.306;2023-04-24T05:03:06;2.22;;;1.50;;
56670;SDS011;42545;50.054;8.306;2023-04-24T05:05:34;2.50;;;1.73;;
56670;SDS011;42545;50.054;8.306;2023-04-24T05:08:05;2.58;;;1.38;;
56670;SDS011;42545;50.054;8.306;2023-04-24T05:10:32;1.85;;;1.70;;
56670;SDS011;42545;50.054;8.306;2023-04-24T05:12:58;2.88;;;1.67;;
56670;SDS011;42545;50.054;8.306;2023-04-24T05:15:25;2.10;;;1.80;;
56670;SDS011;42545;50.054;8.306;2023-04-24T05:17:52;4.13;;;2.20;;
56670;SDS011;42545;50.054;8.306;2023-04-24T05:20:22;3.65;;;2.08;;
56670;SDS011;42545;50.054;8.306;2023-04-24T05:22:51;2.72;;;2.10;;
56670;SDS011;42545;50.054;8.306;2023-04-24T05:25:18;2.28;;;1.73;;
56670;SDS011;42545;50.054;8.306;2023-04-24T05:27:44;3.28;;;2.22;;
56670;SDS011;42545;50.054;8.306;2023-04-24T05:30:12;3.17;;;2.10;;
56670;SDS011;42545;50.054;8.306;2023-04-24T05:32:39;4.32;;;2.67;;
56670;SDS011;42545;50.054;8.306;2023-04-24T05:35:06;3.03;;;2.53;;
56670;SDS011;42545;50.054;8.306;2023-04-24T05:37:33;4.15;;;2.97;;
56670;SDS011;42545;50.054;8.306;2023-04-24T05:40:01;2.75;;;2.00;;
56670;SDS011;42545;50.054;8.306;2023-04-24T05:42:30;3.10;;;2.38;;
56670;SDS011;42545;50.054;8.306;2023-04-24T05:44:58;11.38;;;2.92;;
56670;SDS011;42545;50.054;8.306;2023-04-24T05:47:26;5.22;;;2.20;;
56670;SDS011;42545;50.054;8.306;2023-04-24T05:49:54;3.97;;;2.65;;
56670;SDS011;42545;50.054;8.306;2023-04-24T05:52:26;3.72;;;2.13;;
56670;SDS011;42545;50.054;8.306;2023-04-24T05:54:53;3.67;;;2.42;;
56670;SDS011;42545;50.054;8.306;2023-04-24T05:57:21;7.07;;;3.97;;
56670;SDS011;42545;50.054;8.306;2023-04-24T05:59:48;3.13;;;2.40;;
56670;SDS011;42545;50.054;8.306;2023-04-24T06:02:18;4.55;;;2.80;;
56670;SDS011;42545;50.054;8.306;2023-04-24T06:04:44;4.38;;;2.15;;
56670;SDS011;42545;50.054;8.306;2023-04-24T06:07:11;3.83;;;2.47;;
56670;SDS011;42545;50.054;8.306;2023-04-24T06:09:38;5.13;;;2.50;;
56670;SDS011;42545;50.054;8.306;2023-04-24T06:12:05;4.28;;;3.10;;
56670;SDS011;42545;50.054;8.306;2023-04-24T06:14:34;3.92;;;2.50;;
56670;SDS011;42545;50.054;8.306;2023-04-24T06:17:01;3.70;;;2.13;;
56670;SDS011;42545;50.054;8.306;2023-04-24T06:19:28;4.15;;;2.40;;
56670;SDS011;42545;50.054;8.306;2023-04-24T06:21:54;2.95;;;2.38;;
56670;SDS011;42545;50.054;8.306;2023-04-24T06:24:21;2.90;;;2.20;;
56670;SDS011;42545;50.054;8.306;2023-04-24T06:26:48;5.40;;;2.90;;
56670;SDS011;42545;50.054;8.306;2023-04-24T06:29:15;4.25;;;2.65;;
56670;SDS011;42545;50.054;8.306;2023-04-24T06:31:43;3.33;;;2.85;;
56670;SDS011;42545;50.054;8.306;2023-04-24T06:34:10;4.28;;;2.80;;
56670;SDS011;42545;50.054;8.306;2023-04-24T06:36:37;4.22;;;2.63;;
56670;SDS011;42545;50.054;8.306;2023-04-24T06:39:03;3.83;;;2.55;;
56670;SDS011;42545;50.054;8.306;2023-04-24T06:41:31;5.38;;;2.75;;
56670;SDS011;42545;50.054;8.306;2023-04-24T06:43:57;3.38;;;2.20;;
56670;SDS011;42545;50.054;8.306;2023-04-24T06:46:24;3.88;;;2.80;;
56670;SDS011;42545;50.054;8.306;2023-04-24T06:48:54;3.15;;;2.58;;
56670;SDS011;42545;50.054;8.306;2023-04-24T06:51:22;3.47;;;2.80;;
56670;SDS011;42545;50.054;8.306;2023-04-24T06:53:49;3.58;;;2.78;;
56670;SDS011;42545;50.054;8.306;2023-04-24T06:56:16;3.05;;;1.83;;
56670;SDS011;42545;50.054;8.306;2023-04-24T06:58:42;3.95;;;2.25;;
56670;SDS011;42545;50.054;8.306;2023-04-24T07:01:10;3.85;;;2.22;;
56670;SDS011;42545;50.054;8.306;2023-04-24T07:03:37;2.22;;;1.92;;
56670;SDS011;42545;50.054;8.306;2023-04-24T07:06:06;4.70;;;2.45;;
56670;SDS011;42545;50.054;8.306;2023-04-24T07:08:32;4.63;;;2.75;;
56670;SDS011;42545;50.054;8.306;2023-04-24T07:10:59;2.38;;;2.00;;
56670;SDS011;42545;50.054;8.306;2023-04-24T07:13:26;4.72;;;2.30;;
56670;SDS011;42545;50.054;8.306;2023-04-24T07:15:53;3.20;;;2.10;;
56670;SDS011;42545;50.054;8.306;2023-04-24T07:18:21;8.93;;;2.67;;
56670;SDS011;42545;50.054;8.306;2023-04-24T07:20:50;3.25;;;2.45;;
56670;SDS011;42545;50.054;8.306;2023-04-24T07:23:19;2.70;;;2.10;;
56670;SDS011;42545;50.054;8.306;2023-04-24T07:25:46;3.85;;;2.33;;
56670;SDS011;42545;50.054;8.306;2023-04-24T07:28:12;3.95;;;2.40;;
56670;SDS011;42545;50.054;8.306;2023-04-24T07:30:39;2.78;;;2.10;;
56670;SDS011;42545;50.054;8.306;2023-04-24T07:33:06;2.95;;;2.17;;
56670;SDS011;42545;50.054;8.306;2023-04-24T07:35:32;2.95;;;2.60;;
56670;SDS011;42545;50.054;8.306;2023-04-24T07:37:59;4.30;;;2.35;;
56670;SDS011;42545;50.054;8.306;2023-04-24T07:40:28;4.18;;;2.58;;
56670;SDS011;42545;50.054;8.306;2023-04-24T07:42:55;3.58;;;2.40;;
56670;SDS011;42545;50.054;8.306;2023-04-24T07:45:21;3.55;;;2.88;;
56670;SDS011;42545;50.054;8.306;2023-04-24T07:47:51;4.20;;;2.80;;
56670;SDS011;42545;50.054;8.306;2023-04-24T07:50:17;2.78;;;2.40;;
56670;SDS011;42545;50.054;8.306;2023-04-24T07:52:44;3.55;;;2.50;;
56670;SDS011;42545;50.054;8.306;2023-04-24T07:55:12;3.28;;;1.95;;
56670;SDS011;42545;50.054;8.306;2023-04-24T07:57:40;7.00;;;2.60;;
56670;SDS011;42545;50.054;8.306;2023-04-24T08:00:07;3.90;;;2.65;;
56670;SDS011;42545;50.054;8.306;2023-04-24T08:02:35;3.05;;;2.08;;
56670;SDS011;42545;50.054;8.306;2023-04-24T08:05:02;3.15;;;2.50;;
56670;SDS011;42545;50.054;8.306;2023-04-24T08:07:31;2.28;;;2.08;;
56670;SDS011;42545;50.054;8.306;2023-04-24T08:10:02;3.92;;;2.53;;
56670;SDS011;42545;50.054;8.306;2023-04-24T08:12:30;2.65;;;2.30;;
56670;SDS011;42545;50.054;8.306;2023-04-24T08:14:58;2.67;;;2.17;;
56670;SDS011;42545;50.054;8.306;2023-04-24T08:17:25;7.68;;;4.50;;
56670;SDS011;42545;50.054;8.306;2023-04-24T08:19:58;5.53;;;2.80;;
56670;SDS011;42545;50.054;8.306;2023-04-24T08:22:26;2.88;;;2.58;;
56670;SDS011;42545;50.054;8.306;2023-04-24T08:24:53;2.65;;;1.90;;
56670;SDS011;42545;50.054;8.306;2023-04-24T08:27:21;7.40;;;2.42;;
56670;SDS011;42545;50.054;8.306;2023-04-24T08:29:47;3.38;;;2.17;;
56670;SDS011;42545;50.054;8.306;2023-04-24T08:32:16;3.47;;;2.20;;
56670;SDS011;42545;50.054;8.306;2023-04-24T08:34:43;2.17;;;1.88;;
56670;SDS011;42545;50.054;8.306;2023-04-24T08:37:09;2.95;;;1.70;;
56670;SDS011;42545;50.054;8.306;2023-04-24T08:39:37;3.95;;;2.50;;
56670;SDS011;42545;50.054;8.306;2023-04-24T08:42:08;5.45;;;2.78;;
56670;SDS011;42545;50.054;8.306;2023-04-24T08:44:38;3.17;;;2.45;;
56670;SDS011;42545;50.054;8.306;2023-04-24T08:47:05;2.75;;;2.40;;
56670;SDS011;42545;50.054;8.306;2023-04-24T08:49:35;4.80;;;2.85;;
56670;SDS011;42545;50.054;8.306;2023-04-24T08:52:02;3.20;;;2.17;;
56670;SDS011;42545;50.054;8.306;2023-04-24T08:54:29;4.97;;;2.22;;
56670;SDS011;42545;50.054;8.306;2023-04-24T08:56:58;4.07;;;2.10;;
56670;SDS011;42545;50.054;8.306;2023-04-24T08:59:30;2.25;;;2.00;;
56670;SDS011;42545;50.054;8.306;2023-04-24T09:02:00;3.13;;;2.45;;
56670;SDS011;42545;50.054;8.306;2023-04-24T09:04:31;2.35;;;1.83;;
56670;SDS011;42545;50.054;8.306;2023-04-24T09:07:02;2.22;;;1.80;;
56670;SDS011;42545;50.054;8.306;2023-04-24T09:09:30;2.28;;;1.90;;
56670;SDS011;42545;50.054;8.306;2023-04-24T09:12:01;3.10;;;1.98;;
56670;SDS011;42545;50.054;8.306;2023-04-24T09:14:31;3.38;;;2.10;;
56670;SDS011;42545;50.054;8.306;2023-04-24T09:16:58;3.15;;;2.08;;
56670;SDS011;42545;50.054;8.306;2023-04-24T09:19:24;2.60;;;1.73;;
56670;SDS011;42545;50.054;8.306;2023-04-24T09:21:55;3.17;;;2.10;;
56670;SDS011;42545;50.054;8.306;2023-04-24T09:24:22;2.45;;;2.17;;
56670;SDS011;42545;50.054;8.306;2023-04-24T09:26:56;3.95;;;2.20;;
56670;SDS011;42545;50.054;8.306;2023-04-24T09:29:26;3.78;;;2.05;;
56670;SDS011;42545;50.054;8.306;2023-04-24T09:31:53;2.10;;;1.80;;
56670;SDS011;42545;50.054;8.306;2023-04-24T09:34:21;2.25;;;1.70;;
56670;SDS011;42545;50.054;8.306;2023-04-24T09:36:49;4.35;;;1.80;;
56670;SDS011;42545;50.054;8.306;2023-04-24T09:39:17;2.40;;;1.65;;
56670;SDS011;42545;50.054;8.306;2023-04-24T09:41:46;3.10;;;1.80;;
56670;SDS011;42545;50.054;8.306;2023-04-24T09:44:15;2.13;;;1.63;;
56670;SDS011;42545;50.054;8.306;2023-04-24T09:46:42;2.35;;;2.05;;
56670;SDS011;42545;50.054;8.306;2023-04-24T09:49:12;3.80;;;1.40;;
56670;SDS011;42545;50.054;8.306;2023-04-24T09:51:40;2.10;;;1.42;;
56670;SDS011;42545;50.054;8.306;2023-04-24T09:54:12;3.28;;;1.90;;
56670;SDS011;42545;50.054;8.306;2023-04-24T09:56:43;1.85;;;1.60;;
56670;SDS011;42545;50.054;8.306;2023-04-24T09:59:11;1.60;;;1.50;;
56670;SDS011;42545;50.054;8.306;2023-04-24T10:01:39;1.77;;;1.42;;
56670;SDS011;42545;50.054;8.306;2023-04-24T10:04:14;2.15;;;1.70;;
56670;SDS011;42545;50.054;8.306;2023-04-24T10:06:44;2.10;;;1.52;;
56670;SDS011;42545;50.054;8.306;2023-04-24T10:09:12;2.45;;;1.83;;
56670;SDS011;42545;50.054;8.306;2023-04-24T10:11:43;4.07;;;1.90;;
56670;SDS011;42545;50.054;8.306;2023-04-24T10:14:13;2.30;;;1.60;;
56670;SDS011;42545;50.054;8.306;2023-04-24T10:16:40;3.60;;;2.10;;
56670;SDS011;42545;50.054;8.306;2023-04-24T10:19:08;3.90;;;2.00;;
56670;SDS011;42545;50.054;8.306;2023-04-24T10:21:37;2.75;;;1.70;;
56670;SDS011;42545;50.054;8.306;2023-04-24T10:24:07;2.53;;;1.85;;
56670;SDS011;42545;50.054;8.306;2023-04-24T10:26:34;1.50;;;1.40;;
56670;SDS011;42545;50.054;8.306;2023-04-24T10:29:04;2.30;;;1.60;;
56670;SDS011;42545;50.054;8.306;2023-04-24T10:31:34;2.65;;;1.75;;
56670;SDS011;42545;50.054;8.306;2023-04-24T10:34:02;2.58;;;1.60;;
56670;SDS011;42545;50.054;8.306;2023-04-24T10:36:30;2.17;;;1.85;;
56670;SDS011;42545;50.054;8.306;2023-04-24T10:38:59;1.52;;;1.40;;
56670;SDS011;42545;50.054;8.306;2023-04-24T10:41:28;2.08;;;1.70;;
56670;SDS011;42545;50.054;8.306;2023-04-24T10:44:07;2.97;;;1.65;;
56670;SDS011;42545;50.054;8.306;2023-04-24T10:46:35;2.38;;;2.08;;
56670;SDS011;42545;50.054;8.306;2023-04-24T10:49:03;1.58;;;1.40;;
56670;SDS011;42545;50.054;8.306;2023-04-24T10:51:44;1.80;;;1.58;;
56670;SDS011;42545;50.054;8.306;2023-04-24T10:54:22;1.90;;;1.27;;
56670;SDS011;42545;50.054;8.306;2023-04-24T10:56:50;1.70;;;1.60;;
56670;SDS011;42545;50.054;8.306;2023-04-24T10:59:28;3.03;;;1.70;;
56670;SDS011;42545;50.054;8.306;2023-04-24T11:02:02;2.00;;;1.65;;
56670;SDS011;42545;50.054;8.306;2023-04-24T11:04:29;2.58;;;1.52;;
56670;SDS011;42545;50.054;8.306;2023-04-24T11:06:58;1.60;;;1.40;;
56670;SDS011;42545;50.054;8.306;2023-04-24T11:09:26;2.45;;;1.42;;
56670;SDS011;42545;50.054;8.306;2023-04-24T11:12:02;1.50;;;1.40;;
56670;SDS011;42545;50.054;8.306;2023-04-24T11:14:35;3.40;;;1.58;;
56670;SDS011;42545;50.054;8.306;2023-04-24T11:17:28;2.33;;;1.50;;
56670;SDS011;42545;50.054;8.306;2023-04-24T11:20:01;2.25;;;1.30;;
56670;SDS011;42545;50.054;8.306;2023-04-24T11:22:32;1.95;;;1.38;;
56670;SDS011;42545;50.054;8.306;2023-04-24T11:25:00;1.63;;;1.30;;
56670;SDS011;42545;50.054;8.306;2023-04-24T11:27:29;1.95;;;1.50;;
56670;SDS011;42545;50.054;8.306;2023-04-24T11:30:02;3.17;;;2.00;;
56670;SDS011;42545;50.054;8.306;2023-04-24T11:32:30;2.53;;;1.70;;
56670;SDS011;42545;50.054;8.306;2023-04-24T11:35:02;2.10;;;1.73;;
56670;SDS011;42545;50.054;8.306;2023-04-24T11:37:33;1.50;;;1.38;;
56670;SDS011;42545;50.054;8.306;2023-04-24T11:40:01;1.65;;;1.30;;
56670;SDS011;42545;50.054;8.306;2023-04-24T11:42:33;1.45;;;1.20;;
56670;SDS011;42545;50.054;8.306;2023-04-24T11:45:01;1.92;;;1.17;;
56670;SDS011;42545;50.054;8.306;2023-04-24T11:47:35;0.90;;;0.90;;
56670;SDS011;42545;50.054;8.306;2023-04-24T11:50:06;2.45;;;1.42;;
56670;SDS011;42545;50.054;8.306;2023-04-24T11:52:37;1.88;;;1.33;;
56670;SDS011;42545;50.054;8.306;2023-04-24T11:55:06;1.80;;;1.50;;
56670;SDS011;42545;50.054;8.306;2023-04-24T11:57:33;2.88;;;1.90;;
56670;SDS011;42545;50.054;8.306;2023-04-24T12:00:03;3.45;;;2.10;;
56670;SDS011;42545;50.054;8.306;2023-04-24T12:02:31;2.40;;;1.80;;
56670;SDS011;42545;50.054;8.306;2023-04-24T12:04:57;2.20;;;1.75;;
56670;SDS011;42545;50.054;8.306;2023-04-24T12:07:24;3.00;;;1.80;;
56670;SDS011;42545;50.054;8.306;2023-04-24T12:09:55;2.67;;;1.95;;
56670;SDS011;42545;50.054;8.306;2023-04-24T12:12:25;2.65;;;2.00;;
56670;SDS011;42545;50.054;8.306;2023-04-24T12:14:53;4.30;;;3.05;;
56670;SDS011;42545;50.054;8.306;2023-04-24T12:17:25;3.25;;;2.55;;
56670;SDS011;42545;50.054;8.306;2023-04-24T12:19:56;3.15;;;2.58;;
56670;SDS011;42545;50.054;8.306;2023-04-24T12:22:25;4.22;;;2.50;;
56670;SDS011;42545;50.054;8.306;2023-04-24T12:24:56;7.05;;;3.63;;
56670;SDS011;42545;50.054;8.306;2023-04-24T12:27:24;5.35;;;2.97;;
56670;SDS011;42545;50.054;8.306;2023-04-24T12:29:51;4.10;;;3.08;;
56670;SDS011;42545;50.054;8.306;2023-04-24T12:32:18;5.38;;;3.35;;
56670;SDS011;42545;50.054;8.306;2023-04-24T12:34:46;7.78;;;3.95;;
56670;SDS011;42545;50.054;8.306;2023-04-24T12:37:13;4.63;;;3.25;;
56670;SDS011;42545;50.054;8.306;2023-04-24T12:39:42;5.10;;;3.55;;
56670;SDS011;42545;50.054;8.306;2023-04-24T12:42:25;5.32;;;3.70;;
56670;SDS011;42545;50.054;8.306;2023-04-24T12:44:55;8.77;;;3.83;;
56670;SDS011;42545;50.054;8.306;2023-04-24T12:47:22;5.85;;;3.20;;
56670;SDS011;42545;50.054;8.306;2023-04-24T12:49:52;5.20;;;3.50;;
56670;SDS011;42545;50.054;8.306;2023-04-24T12:52:20;4.85;;;3.05;;
56670;SDS011;42545;50.054;8.306;2023-04-24T12:54:46;5.88;;;3.60;;
56670;SDS011;42545;50.054;8.306;2023-04-24T12:57:14;5.90;;;3.33;;
56670;SDS011;42545;50.054;8.306;2023-04-24T12:59:41;3.83;;;2.83;;
56670;SDS011;42545;50.054;8.306;2023-04-24T13:02:08;3.65;;;2.67;;
56670;SDS011;42545;50.054;8.306;2023-04-24T13:04:35;4.47;;;3.03;;
56670;SDS011;42545;50.054;8.306;2023-04-24T13:07:03;3.15;;;2.65;;
56670;SDS011;42545;50.054;8.306;2023-04-24T13:09:31;4.10;;;2.45;;
56670;SDS011;42545;50.054;8.306;2023-04-24T13:11:58;7.90;;;3.25;;
56670;SDS011;42545;50.054;8.306;2023-04-24T13:14:25;3.83;;;2.70;;
56670;SDS011;42545;50.054;8.306;2023-04-24T13:16:52;2.50;;;2.20;;
56670;SDS011;42545;50.054;8.306;2023-04-24T13:19:21;6.55;;;2.97;;
56670;SDS011;42545;50.054;8.306;2023-04-24T13:21:50;4.10;;;2.72;;
56670;SDS011;42545;50.054;8.306;2023-04-24T13:24:18;4.35;;;3.25;;
56670;SDS011;42545;50.054;8.306;2023-04-24T13:26:45;3.33;;;2.92;;
56670;SDS011;42545;50.054;8.306;2023-04-24T13:29:11;4.25;;;2.33;;
56670;SDS011;42545;50.054;8.306;2023-04-24T13:31:38;3.65;;;2.75;;
56670;SDS011;42545;50.054;8.306;2023-04-24T13:34:07;3.40;;;2.65;;
56670;SDS011;42545;50.054;8.306;2023-04-24T13:36:34;8.85;;;2.83;;
56670;SDS011;42545;50.054;8.306;2023-04-24T13:39:01;4.13;;;2.63;;
56670;SDS011;42545;50.054;8.306;2023-04-24T13:41:30;4.25;;;2.60;;
56670;SDS011;42545;50.054;8.306;2023-04-24T13:43:58;5.43;;;3.03;;
56670;SDS011;42545;50.054;8.306;2023-04-24T13:46:24;4.53;;;2.80;;
56670;SDS011;42545;50.054;8.306;2023-04-24T13:48:52;5.28;;;3.35;;
56670;SDS011;42545;50.054;8.306;2023-04-24T13:51:18;3.28;;;2.40;;
56670;SDS011;42545;50.054;8.306;2023-04-24T13:53:45;4.95;;;2.97;;
56670;SDS011;42545;50.054;8.306;2023-04-24T13:56:12;3.88;;;2.90;;
56670;SDS011;42545;50.054;8.306;2023-04-24T13:58:41;4.15;;;2.65;;
56670;SDS011;42545;50.054;8.306;2023-04-24T14:01:10;6.05;;;3.08;;
56670;SDS011;42545;50.054;8.306;2023-04-24T14:03:36;4.30;;;2.50;;
56670;SDS011;42545;50.054;8.306;2023-04-24T14:06:03;4.72;;;2.47;;
56670;SDS011;42545;50.054;8.306;2023-04-24T14:08:31;4.05;;;3.00;;
56670;SDS011;42545;50.054;8.306;2023-04-24T14:10:58;5.82;;;2.92;;
56670;SDS011;42545;50.054;8.306;2023-04-24T14:13:24;5.10;;;2.72;;
56670;SDS011;42545;50.054;8.306;2023-04-24T14:15:54;7.40;;;3.28;;
56670;SDS011;42545;50.054;8.306;2023-04-24T14:18:21;5.90;;;3.13;;
56670;SDS011;42545;50.054;8.306;2023-04-24T14:20:48;5.40;;;2.50;;
56670;SDS011;42545;50.054;8.306;2023-04-24T14:23:15;2.90;;;2.45;;
56670;SDS011;42545;50.054;8.306;2023-04-24T14:25:47;3.40;;;2.35;;
56670;SDS011;42545;50.054;8.306;2023-04-24T14:28:16;6.55;;;2.78;;
56670;SDS011;42545;50.054;8.306;2023-04-24T14:30:43;4.07;;;2.40;;
56670;SDS011;42545;50.054;8.306;2023-04-24T14:33:11;3.90;;;2.70;;
56670;SDS011;42545;50.054;8.306;2023-04-24T14:35:38;5.30;;;2.47;;
56670;SDS011;42545;50.054;8.306;2023-04-24T14:38:07;4.30;;;3.05;;
56670;SDS011;42545;50.054;8.306;2023-04-24T14:40:33;4.00;;;2.90;;
56670;SDS011;42545;50.054;8.306;2023-04-24T14:43:00;3.47;;;2.30;;
56670;SDS011;42545;50.054;8.306;2023-04-24T14:45:27;5.80;;;3.25;;
56670;SDS011;42545;50.054;8.306;2023-04-24T14:47:54;4.88;;;3.10;;
56670;SDS011;42545;50.054;8.306;2023-04-24T14:50:25;5.35;;;3.15;;
56670;SDS011;42545;50.054;8.306;2023-04-24T14:52:53;5.93;;;2.90;;